Terminal Aerodrome Forecast
Issued by NWS

Home | Current Version | Previous Version | Graphics & Text | Print | Product List | Glossary On
Versions: 1 2 3 4 5 6 7 8 9 10 11 12 13 14 15 16 17 18
948
FTUS43 KPAH 292339
TAFCGI
TAF
KCGI 292339Z 3000/3024 09007KT 6SM -SHRA BR OVC080
     FM300200 13012G18KT P6SM VCSH SCT025 OVC070
     FM300700 11014G22KT 6SM -SHRA BR BKN015
      TEMPO 3009/3013 2SM TSRA BR BKN009CB
     FM301600 20012G19KT P6SM SCT015 BKN035=

USA.gov is the U.S. government's official web portal to all federal, state and local government web resources and services.